sensor_id;sensor_type;location;lat;lon;timestamp;temperature;humidity
36352;DHT22;22382;44.768;17.206;2022-10-10T00:01:32;12.80;99.90
36352;DHT22;22382;44.768;17.206;2022-10-10T00:04:01;12.80;99.90
36352;DHT22;22382;44.768;17.206;2022-10-10T00:06:28;12.80;99.90
36352;DHT22;22382;44.768;17.206;2022-10-10T00:08:59;12.80;99.90
36352;DHT22;22382;44.768;17.206;2022-10-10T00:11:26;12.80;99.90
36352;DHT22;22382;44.768;17.206;2022-10-10T00:13:53;12.90;99.90
36352;DHT22;22382;44.768;17.206;2022-10-10T00:16:20;12.90;99.90
36352;DHT22;22382;44.768;17.206;2022-10-10T00:18:48;13.00;99.90
36352;DHT22;22382;44.768;17.206;2022-10-10T00:21:15;13.00;99.90
36352;DHT22;22382;44.768;17.206;2022-10-10T00:23:42;13.00;99.90
36352;DHT22;22382;44.768;17.206;2022-10-10T00:26:09;13.00;99.90
36352;DHT22;22382;44.768;17.206;2022-10-10T00:28:44;13.00;99.90
36352;DHT22;22382;44.768;17.206;2022-10-10T00:31:11;13.00;99.90
36352;DHT22;22382;44.768;17.206;2022-10-10T00:33:38;13.00;99.90
36352;DHT22;22382;44.768;17.206;2022-10-10T00:36:05;12.90;99.90
36352;DHT22;22382;44.768;17.206;2022-10-10T00:38:32;13.00;99.90
36352;DHT22;22382;44.768;17.206;2022-10-10T00:41:00;13.00;99.90
36352;DHT22;22382;44.768;17.206;2022-10-10T00:43:27;13.00;99.90
36352;DHT22;22382;44.768;17.206;2022-10-10T00:45:55;13.00;99.90
36352;DHT22;22382;44.768;17.206;2022-10-10T00:48:31;13.00;99.90
36352;DHT22;22382;44.768;17.206;2022-10-10T00:51:11;13.00;99.90
36352;DHT22;22382;44.768;17.206;2022-10-10T00:53:48;13.00;99.90
36352;DHT22;22382;44.768;17.206;2022-10-10T00:56:22;13.00;99.90
36352;DHT22;22382;44.768;17.206;2022-10-10T00:58:53;13.00;99.90
36352;DHT22;22382;44.768;17.206;2022-10-10T01:01:21;13.00;99.90
36352;DHT22;22382;44.768;17.206;2022-10-10T01:03:48;13.00;99.90
36352;DHT22;22382;44.768;17.206;2022-10-10T01:06:16;13.00;99.90
36352;DHT22;22382;44.768;17.206;2022-10-10T01:08:42;13.00;99.90
36352;DHT22;22382;44.768;17.206;2022-10-10T01:11:44;13.00;99.90
36352;DHT22;22382;44.768;17.206;2022-10-10T01:28:06;13.10;99.90
36352;DHT22;22382;44.768;17.206;2022-10-10T01:30:38;13.10;99.90
36352;DHT22;22382;44.768;17.206;2022-10-10T01:33:15;13.10;99.90
36352;DHT22;22382;44.768;17.206;2022-10-10T01:38:28;13.10;99.90
36352;DHT22;22382;44.768;17.206;2022-10-10T01:41:07;13.20;99.90
36352;DHT22;22382;44.768;17.206;2022-10-10T01:43:36;13.10;99.90
36352;DHT22;22382;44.768;17.206;2022-10-10T01:46:15;13.10;99.90
36352;DHT22;22382;44.768;17.206;2022-10-10T01:48:45;13.10;99.90
36352;DHT22;22382;44.768;17.206;2022-10-10T01:56:55;13.10;99.90
36352;DHT22;22382;44.768;17.206;2022-10-10T01:59:30;13.10;99.90
36352;DHT22;22382;44.768;17.206;2022-10-10T02:02:03;13.10;99.90
36352;DHT22;22382;44.768;17.206;2022-10-10T02:04:40;13.00;99.90
36352;DHT22;22382;44.768;17.206;2022-10-10T02:07:18;13.00;99.90
36352;DHT22;22382;44.768;17.206;2022-10-10T02:09:48;13.00;99.90
36352;DHT22;22382;44.768;17.206;2022-10-10T02:12:18;13.00;99.90
36352;DHT22;22382;44.768;17.206;2022-10-10T02:14:49;13.00;99.90
36352;DHT22;22382;44.768;17.206;2022-10-10T02:17:17;13.00;99.90
36352;DHT22;22382;44.768;17.206;2022-10-10T02:19:54;13.00;99.90
36352;DHT22;22382;44.768;17.206;2022-10-10T02:22:23;13.10;99.90
36352;DHT22;22382;44.768;17.206;2022-10-10T02:24:51;13.10;99.90
36352;DHT22;22382;44.768;17.206;2022-10-10T02:29:50;13.10;99.90
36352;DHT22;22382;44.768;17.206;2022-10-10T02:32:26;13.10;99.90
36352;DHT22;22382;44.768;17.206;2022-10-10T02:34:57;13.20;99.90
36352;DHT22;22382;44.768;17.206;2022-10-10T02:37:25;13.10;99.90
36352;DHT22;22382;44.768;17.206;2022-10-10T02:39:57;13.10;99.90
36352;DHT22;22382;44.768;17.206;2022-10-10T02:42:25;13.10;99.90
36352;DHT22;22382;44.768;17.206;2022-10-10T02:44:54;13.20;99.90
36352;DHT22;22382;44.768;17.206;2022-10-10T02:47:21;13.20;99.90
36352;DHT22;22382;44.768;17.206;2022-10-10T02:49:49;13.30;99.90
36352;DHT22;22382;44.768;17.206;2022-10-10T02:52:16;13.30;99.90
36352;DHT22;22382;44.768;17.206;2022-10-10T02:54:43;13.30;99.90
36352;DHT22;22382;44.768;17.206;2022-10-10T02:57:11;13.30;99.90
36352;DHT22;22382;44.768;17.206;2022-10-10T02:59:38;13.30;99.90
36352;DHT22;22382;44.768;17.206;2022-10-10T03:02:05;13.30;99.90
36352;DHT22;22382;44.768;17.206;2022-10-10T03:04:32;13.30;99.90
36352;DHT22;22382;44.768;17.206;2022-10-10T03:06:59;13.20;99.90
36352;DHT22;22382;44.768;17.206;2022-10-10T03:09:26;13.10;99.90
36352;DHT22;22382;44.768;17.206;2022-10-10T03:11:53;13.10;99.90
36352;DHT22;22382;44.768;17.206;2022-10-10T03:14:20;13.10;99.90
36352;DHT22;22382;44.768;17.206;2022-10-10T03:16:47;13.10;99.90
36352;DHT22;22382;44.768;17.206;2022-10-10T03:19:14;13.10;99.90
36352;DHT22;22382;44.768;17.206;2022-10-10T03:21:41;13.10;99.90
36352;DHT22;22382;44.768;17.206;2022-10-10T03:24:08;13.10;99.90
36352;DHT22;22382;44.768;17.206;2022-10-10T03:26:35;13.10;99.90
36352;DHT22;22382;44.768;17.206;2022-10-10T03:29:03;13.00;99.90
36352;DHT22;22382;44.768;17.206;2022-10-10T03:31:30;12.90;99.90
36352;DHT22;22382;44.768;17.206;2022-10-10T03:33:58;12.90;99.90
36352;DHT22;22382;44.768;17.206;2022-10-10T03:36:25;12.80;99.90
36352;DHT22;22382;44.768;17.206;2022-10-10T03:38:52;12.80;99.90
36352;DHT22;22382;44.768;17.206;2022-10-10T03:41:19;12.70;99.90
36352;DHT22;22382;44.768;17.206;2022-10-10T03:43:46;12.80;99.90
36352;DHT22;22382;44.768;17.206;2022-10-10T03:46:13;12.80;99.90
36352;DHT22;22382;44.768;17.206;2022-10-10T03:48:42;12.70;99.90
36352;DHT22;22382;44.768;17.206;2022-10-10T03:51:09;12.70;99.90
36352;DHT22;22382;44.768;17.206;2022-10-10T03:53:36;12.70;99.90
36352;DHT22;22382;44.768;17.206;2022-10-10T03:56:03;12.70;99.90
36352;DHT22;22382;44.768;17.206;2022-10-10T03:58:31;12.70;99.90
36352;DHT22;22382;44.768;17.206;2022-10-10T04:00:59;12.70;99.90
36352;DHT22;22382;44.768;17.206;2022-10-10T04:03:28;12.80;99.90
36352;DHT22;22382;44.768;17.206;2022-10-10T04:05:55;12.70;99.90
36352;DHT22;22382;44.768;17.206;2022-10-10T04:08:23;12.60;99.90
36352;DHT22;22382;44.768;17.206;2022-10-10T04:10:51;12.70;99.90
36352;DHT22;22382;44.768;17.206;2022-10-10T04:13:19;12.70;99.90
36352;DHT22;22382;44.768;17.206;2022-10-10T04:15:50;12.70;99.90
36352;DHT22;22382;44.768;17.206;2022-10-10T04:18:17;12.70;99.90
36352;DHT22;22382;44.768;17.206;2022-10-10T04:20:44;12.70;99.90
36352;DHT22;22382;44.768;17.206;2022-10-10T04:23:11;12.70;99.90
36352;DHT22;22382;44.768;17.206;2022-10-10T04:25:38;12.70;99.90
36352;DHT22;22382;44.768;17.206;2022-10-10T04:28:13;12.70;99.90
36352;DHT22;22382;44.768;17.206;2022-10-10T04:30:40;12.70;99.90
36352;DHT22;22382;44.768;17.206;2022-10-10T04:33:08;12.70;99.90
36352;DHT22;22382;44.768;17.206;2022-10-10T04:35:35;12.80;99.90
36352;DHT22;22382;44.768;17.206;2022-10-10T04:38:03;12.90;99.90
36352;DHT22;22382;44.768;17.206;2022-10-10T04:40:31;12.90;99.90
36352;DHT22;22382;44.768;17.206;2022-10-10T04:42:58;12.90;99.90
36352;DHT22;22382;44.768;17.206;2022-10-10T04:45:25;12.90;99.90
36352;DHT22;22382;44.768;17.206;2022-10-10T04:47:53;12.90;99.90
36352;DHT22;22382;44.768;17.206;2022-10-10T04:50:21;12.90;99.90
36352;DHT22;22382;44.768;17.206;2022-10-10T04:52:48;13.00;99.90
36352;DHT22;22382;44.768;17.206;2022-10-10T04:55:15;13.00;99.90
36352;DHT22;22382;44.768;17.206;2022-10-10T04:57:42;13.00;99.90
36352;DHT22;22382;44.768;17.206;2022-10-10T05:00:10;13.10;99.90
36352;DHT22;22382;44.768;17.206;2022-10-10T05:02:37;13.00;99.90
36352;DHT22;22382;44.768;17.206;2022-10-10T05:05:04;13.10;99.90
36352;DHT22;22382;44.768;17.206;2022-10-10T05:07:31;13.00;99.90
36352;DHT22;22382;44.768;17.206;2022-10-10T05:09:58;13.00;99.90
36352;DHT22;22382;44.768;17.206;2022-10-10T05:12:25;13.00;99.90
36352;DHT22;22382;44.768;17.206;2022-10-10T05:14:52;13.10;99.90
36352;DHT22;22382;44.768;17.206;2022-10-10T05:17:19;13.10;99.90
36352;DHT22;22382;44.768;17.206;2022-10-10T05:19:46;13.10;99.90
36352;DHT22;22382;44.768;17.206;2022-10-10T05:22:13;13.10;99.90
36352;DHT22;22382;44.768;17.206;2022-10-10T05:24:40;13.00;99.90
36352;DHT22;22382;44.768;17.206;2022-10-10T05:27:07;13.10;99.90
36352;DHT22;22382;44.768;17.206;2022-10-10T05:29:34;13.10;99.90
36352;DHT22;22382;44.768;17.206;2022-10-10T05:32:01;13.10;99.90
36352;DHT22;22382;44.768;17.206;2022-10-10T05:34:34;13.10;99.90
36352;DHT22;22382;44.768;17.206;2022-10-10T05:37:01;13.20;99.90
36352;DHT22;22382;44.768;17.206;2022-10-10T05:39:28;13.20;99.90
36352;DHT22;22382;44.768;17.206;2022-10-10T05:41:55;13.20;99.90
36352;DHT22;22382;44.768;17.206;2022-10-10T05:44:22;13.20;99.90
36352;DHT22;22382;44.768;17.206;2022-10-10T05:46:49;13.20;99.90
36352;DHT22;22382;44.768;17.206;2022-10-10T05:49:16;13.20;99.90
36352;DHT22;22382;44.768;17.206;2022-10-10T05:51:43;13.30;99.90
36352;DHT22;22382;44.768;17.206;2022-10-10T05:54:10;13.30;99.90
36352;DHT22;22382;44.768;17.206;2022-10-10T05:56:37;13.30;99.90
36352;DHT22;22382;44.768;17.206;2022-10-10T05:59:04;13.30;99.90
36352;DHT22;22382;44.768;17.206;2022-10-10T06:01:31;13.40;99.90
36352;DHT22;22382;44.768;17.206;2022-10-10T06:03:58;13.20;99.90
36352;DHT22;22382;44.768;17.206;2022-10-10T06:06:25;13.20;99.90
36352;DHT22;22382;44.768;17.206;2022-10-10T06:08:52;13.30;99.90
36352;DHT22;22382;44.768;17.206;2022-10-10T06:11:19;13.30;99.90
36352;DHT22;22382;44.768;17.206;2022-10-10T06:13:48;13.30;99.90
36352;DHT22;22382;44.768;17.206;2022-10-10T06:16:21;13.30;99.90
36352;DHT22;22382;44.768;17.206;2022-10-10T06:18:48;13.30;99.90
36352;DHT22;22382;44.768;17.206;2022-10-10T06:21:16;13.20;99.90
36352;DHT22;22382;44.768;17.206;2022-10-10T06:23:44;13.20;99.90
36352;DHT22;22382;44.768;17.206;2022-10-10T06:26:11;13.10;99.90
36352;DHT22;22382;44.768;17.206;2022-10-10T06:28:38;13.20;99.90
36352;DHT22;22382;44.768;17.206;2022-10-10T06:31:06;13.20;99.90
36352;DHT22;22382;44.768;17.206;2022-10-10T06:33:34;13.30;99.90
36352;DHT22;22382;44.768;17.206;2022-10-10T06:36:04;13.40;99.90
36352;DHT22;22382;44.768;17.206;2022-10-10T06:38:36;13.40;99.90
36352;DHT22;22382;44.768;17.206;2022-10-10T06:41:04;13.40;99.90
36352;DHT22;22382;44.768;17.206;2022-10-10T06:43:32;13.50;99.90
36352;DHT22;22382;44.768;17.206;2022-10-10T06:46:00;13.60;99.90
36352;DHT22;22382;44.768;17.206;2022-10-10T06:48:27;13.60;99.90
36352;DHT22;22382;44.768;17.206;2022-10-10T06:51:02;13.70;99.90
36352;DHT22;22382;44.768;17.206;2022-10-10T06:53:30;13.70;99.90
36352;DHT22;22382;44.768;17.206;2022-10-10T06:55:57;13.70;99.90
36352;DHT22;22382;44.768;17.206;2022-10-10T06:58:26;13.80;99.90
36352;DHT22;22382;44.768;17.206;2022-10-10T07:00:55;13.80;99.90
36352;DHT22;22382;44.768;17.206;2022-10-10T07:03:22;13.90;99.90
36352;DHT22;22382;44.768;17.206;2022-10-10T07:05:55;13.90;99.90
36352;DHT22;22382;44.768;17.206;2022-10-10T07:08:23;14.10;99.90
36352;DHT22;22382;44.768;17.206;2022-10-10T07:10:50;14.10;99.90
36352;DHT22;22382;44.768;17.206;2022-10-10T07:13:17;14.20;99.90
36352;DHT22;22382;44.768;17.206;2022-10-10T07:15:44;14.20;99.90
36352;DHT22;22382;44.768;17.206;2022-10-10T07:18:11;14.30;99.90
36352;DHT22;22382;44.768;17.206;2022-10-10T07:20:39;14.30;99.90
36352;DHT22;22382;44.768;17.206;2022-10-10T07:23:06;14.20;99.90
36352;DHT22;22382;44.768;17.206;2022-10-10T07:25:33;14.30;99.90
36352;DHT22;22382;44.768;17.206;2022-10-10T07:28:00;14.60;99.90
36352;DHT22;22382;44.768;17.206;2022-10-10T07:30:27;14.70;99.90
36352;DHT22;22382;44.768;17.206;2022-10-10T07:32:54;14.80;99.90
36352;DHT22;22382;44.768;17.206;2022-10-10T07:35:22;14.90;99.90
36352;DHT22;22382;44.768;17.206;2022-10-10T07:37:53;14.80;99.90
36352;DHT22;22382;44.768;17.206;2022-10-10T07:40:21;14.80;99.90
36352;DHT22;22382;44.768;17.206;2022-10-10T07:42:48;14.80;99.90
36352;DHT22;22382;44.768;17.206;2022-10-10T07:45:16;14.80;99.90
36352;DHT22;22382;44.768;17.206;2022-10-10T07:47:43;14.90;99.90
36352;DHT22;22382;44.768;17.206;2022-10-10T07:50:11;14.90;99.90
36352;DHT22;22382;44.768;17.206;2022-10-10T07:52:39;15.00;99.90
36352;DHT22;22382;44.768;17.206;2022-10-10T07:55:06;15.00;99.90
36352;DHT22;22382;44.768;17.206;2022-10-10T07:57:46;15.00;99.90
36352;DHT22;22382;44.768;17.206;2022-10-10T08:00:19;15.10;99.90
36352;DHT22;22382;44.768;17.206;2022-10-10T08:02:46;15.20;99.90
36352;DHT22;22382;44.768;17.206;2022-10-10T08:05:13;15.20;99.90
36352;DHT22;22382;44.768;17.206;2022-10-10T08:07:40;15.20;99.90
36352;DHT22;22382;44.768;17.206;2022-10-10T08:10:07;15.30;99.90
36352;DHT22;22382;44.768;17.206;2022-10-10T08:12:35;15.40;99.90
36352;DHT22;22382;44.768;17.206;2022-10-10T08:15:04;15.50;99.90
36352;DHT22;22382;44.768;17.206;2022-10-10T08:17:32;15.60;99.90
36352;DHT22;22382;44.768;17.206;2022-10-10T08:19:59;15.60;99.90
36352;DHT22;22382;44.768;17.206;2022-10-10T08:22:26;15.70;99.90
36352;DHT22;22382;44.768;17.206;2022-10-10T08:24:53;15.60;99.90
36352;DHT22;22382;44.768;17.206;2022-10-10T08:27:20;15.60;99.90
36352;DHT22;22382;44.768;17.206;2022-10-10T08:29:47;15.70;99.90
36352;DHT22;22382;44.768;17.206;2022-10-10T08:32:14;15.90;99.90
36352;DHT22;22382;44.768;17.206;2022-10-10T08:34:42;15.80;99.90
36352;DHT22;22382;44.768;17.206;2022-10-10T08:37:09;15.90;99.90
36352;DHT22;22382;44.768;17.206;2022-10-10T08:39:36;15.90;99.90
36352;DHT22;22382;44.768;17.206;2022-10-10T08:42:03;16.00;99.90
36352;DHT22;22382;44.768;17.206;2022-10-10T08:44:43;16.10;99.90
36352;DHT22;22382;44.768;17.206;2022-10-10T08:47:14;16.40;99.90
36352;DHT22;22382;44.768;17.206;2022-10-10T08:49:54;16.40;99.90
36352;DHT22;22382;44.768;17.206;2022-10-10T08:52:40;16.60;99.90
36352;DHT22;22382;44.768;17.206;2022-10-10T08:58:28;16.70;99.90
36352;DHT22;22382;44.768;17.206;2022-10-10T09:01:17;16.70;99.90
36352;DHT22;22382;44.768;17.206;2022-10-10T09:03:58;16.60;99.90
36352;DHT22;22382;44.768;17.206;2022-10-10T09:12:23;16.90;99.90
36352;DHT22;22382;44.768;17.206;2022-10-10T09:14:55;16.90;99.90
36352;DHT22;22382;44.768;17.206;2022-10-10T09:17:44;16.80;99.90
36352;DHT22;22382;44.768;17.206;2022-10-10T09:20:51;16.60;99.90
36352;DHT22;22382;44.768;17.206;2022-10-10T09:26:08;16.90;99.90
36352;DHT22;22382;44.768;17.206;2022-10-10T09:31:13;17.00;99.90
36352;DHT22;22382;44.768;17.206;2022-10-10T09:36:29;17.00;99.90
36352;DHT22;22382;44.768;17.206;2022-10-10T09:39:03;17.00;99.90
36352;DHT22;22382;44.768;17.206;2022-10-10T09:41:55;17.00;99.90
36352;DHT22;22382;44.768;17.206;2022-10-10T09:44:24;16.80;99.90
36352;DHT22;22382;44.768;17.206;2022-10-10T09:46:51;17.10;99.90
36352;DHT22;22382;44.768;17.206;2022-10-10T09:49:19;17.50;99.90
36352;DHT22;22382;44.768;17.206;2022-10-10T09:51:47;17.60;99.90
36352;DHT22;22382;44.768;17.206;2022-10-10T09:54:17;17.60;99.90
36352;DHT22;22382;44.768;17.206;2022-10-10T09:56:55;17.60;99.90
36352;DHT22;22382;44.768;17.206;2022-10-10T09:59:43;17.70;99.90
36352;DHT22;22382;44.768;17.206;2022-10-10T10:02:20;17.90;99.90
36352;DHT22;22382;44.768;17.206;2022-10-10T10:04:49;18.10;99.90
36352;DHT22;22382;44.768;17.206;2022-10-10T10:07:30;17.60;99.90
36352;DHT22;22382;44.768;17.206;2022-10-10T10:10:00;17.20;99.90
36352;DHT22;22382;44.768;17.206;2022-10-10T10:12:29;17.30;99.90
36352;DHT22;22382;44.768;17.206;2022-10-10T10:15:28;17.40;99.90
36352;DHT22;22382;44.768;17.206;2022-10-10T10:20:45;17.00;99.90
36352;DHT22;22382;44.768;17.206;2022-10-10T10:26:00;16.90;99.90
36352;DHT22;22382;44.768;17.206;2022-10-10T10:28:28;17.10;99.90
36352;DHT22;22382;44.768;17.206;2022-10-10T10:30:57;17.10;99.90
36352;DHT22;22382;44.768;17.206;2022-10-10T10:36:16;17.00;99.90
36352;DHT22;22382;44.768;17.206;2022-10-10T10:38:54;16.90;99.90
36352;DHT22;22382;44.768;17.206;2022-10-10T10:41:34;16.80;99.90
36352;DHT22;22382;44.768;17.206;2022-10-10T10:49:45;17.00;99.90
36352;DHT22;22382;44.768;17.206;2022-10-10T10:58:04;17.60;99.90
36352;DHT22;22382;44.768;17.206;2022-10-10T11:01:15;17.60;99.90
36352;DHT22;22382;44.768;17.206;2022-10-10T11:04:23;17.80;99.90
36352;DHT22;22382;44.768;17.206;2022-10-10T11:07:25;17.90;99.90
36352;DHT22;22382;44.768;17.206;2022-10-10T11:10:20;17.70;99.90
36352;DHT22;22382;44.768;17.206;2022-10-10T11:18:24;17.80;99.90
36352;DHT22;22382;44.768;17.206;2022-10-10T11:21:05;17.80;99.90
36352;DHT22;22382;44.768;17.206;2022-10-10T11:26:31;17.10;99.90
36352;DHT22;22382;44.768;17.206;2022-10-10T11:29:14;17.00;99.90
36352;DHT22;22382;44.768;17.206;2022-10-10T11:31:50;17.20;99.90
36352;DHT22;22382;44.768;17.206;2022-10-10T11:37:18;17.70;99.90
36352;DHT22;22382;44.768;17.206;2022-10-10T11:40:02;17.50;99.90
36352;DHT22;22382;44.768;17.206;2022-10-10T11:42:43;18.00;99.90
36352;DHT22;22382;44.768;17.206;2022-10-10T11:45:18;18.10;99.90
36352;DHT22;22382;44.768;17.206;2022-10-10T11:48:12;18.30;99.90
36352;DHT22;22382;44.768;17.206;2022-10-10T11:51:02;18.30;99.90
36352;DHT22;22382;44.768;17.206;2022-10-10T11:53:41;17.80;99.90
36352;DHT22;22382;44.768;17.206;2022-10-10T11:58:43;17.90;99.90
36352;DHT22;22382;44.768;17.206;2022-10-10T12:01:30;18.20;99.90
36352;DHT22;22382;44.768;17.206;2022-10-10T12:04:00;18.50;99.90
36352;DHT22;22382;44.768;17.206;2022-10-10T12:06:44;18.50;99.90
36352;DHT22;22382;44.768;17.206;2022-10-10T12:09:19;18.40;99.90
36352;DHT22;22382;44.768;17.206;2022-10-10T12:11:54;18.50;99.90
36352;DHT22;22382;44.768;17.206;2022-10-10T12:14:25;18.60;99.90
36352;DHT22;22382;44.768;17.206;2022-10-10T12:16:54;18.30;99.90
36352;DHT22;22382;44.768;17.206;2022-10-10T12:19:23;18.10;99.90
36352;DHT22;22382;44.768;17.206;2022-10-10T12:22:00;18.00;99.90
36352;DHT22;22382;44.768;17.206;2022-10-10T12:24:30;18.30;99.90
36352;DHT22;22382;44.768;17.206;2022-10-10T12:29:45;19.00;99.90
36352;DHT22;22382;44.768;17.206;2022-10-10T12:32:24;19.30;99.90
36352;DHT22;22382;44.768;17.206;2022-10-10T12:48:01;19.10;99.90
36352;DHT22;22382;44.768;17.206;2022-10-10T12:50:39;19.10;99.90
36352;DHT22;22382;44.768;17.206;2022-10-10T12:53:16;19.00;99.90
36352;DHT22;22382;44.768;17.206;2022-10-10T12:55:50;18.90;99.90
36352;DHT22;22382;44.768;17.206;2022-10-10T13:00:57;19.30;99.90
36352;DHT22;22382;44.768;17.206;2022-10-10T13:06:04;19.70;99.90
36352;DHT22;22382;44.768;17.206;2022-10-10T13:08:33;19.40;99.90
36352;DHT22;22382;44.768;17.206;2022-10-10T13:11:12;19.00;99.90
36352;DHT22;22382;44.768;17.206;2022-10-10T13:13:48;19.00;99.90
36352;DHT22;22382;44.768;17.206;2022-10-10T13:16:18;18.60;99.90
36352;DHT22;22382;44.768;17.206;2022-10-10T13:18:54;18.70;99.90
36352;DHT22;22382;44.768;17.206;2022-10-10T13:21:32;18.50;99.90
36352;DHT22;22382;44.768;17.206;2022-10-10T13:24:04;18.50;99.90
36352;DHT22;22382;44.768;17.206;2022-10-10T13:26:36;18.20;99.90
36352;DHT22;22382;44.768;17.206;2022-10-10T13:31:53;18.20;99.90
36352;DHT22;22382;44.768;17.206;2022-10-10T13:34:24;18.30;99.90
36352;DHT22;22382;44.768;17.206;2022-10-10T13:36:57;18.40;99.90
36352;DHT22;22382;44.768;17.206;2022-10-10T13:39:27;18.50;99.90
36352;DHT22;22382;44.768;17.206;2022-10-10T13:41:56;18.50;99.90
36352;DHT22;22382;44.768;17.206;2022-10-10T13:44:44;18.50;99.90
36352;DHT22;22382;44.768;17.206;2022-10-10T13:50:25;18.50;99.90
36352;DHT22;22382;44.768;17.206;2022-10-10T14:04:23;18.20;99.90
36352;DHT22;22382;44.768;17.206;2022-10-10T14:07:05;18.00;99.90
36352;DHT22;22382;44.768;17.206;2022-10-10T14:12:11;17.90;99.90
36352;DHT22;22382;44.768;17.206;2022-10-10T14:14:46;18.00;99.90
36352;DHT22;22382;44.768;17.206;2022-10-10T14:17:14;18.10;99.90
36352;DHT22;22382;44.768;17.206;2022-10-10T14:19:43;18.30;99.90
36352;DHT22;22382;44.768;17.206;2022-10-10T14:22:10;18.40;99.90
36352;DHT22;22382;44.768;17.206;2022-10-10T14:24:37;18.40;99.90
36352;DHT22;22382;44.768;17.206;2022-10-10T14:29:46;18.40;99.90
36352;DHT22;22382;44.768;17.206;2022-10-10T14:32:13;18.50;99.90
36352;DHT22;22382;44.768;17.206;2022-10-10T14:34:41;18.60;99.90
36352;DHT22;22382;44.768;17.206;2022-10-10T14:37:26;18.40;99.90
36352;DHT22;22382;44.768;17.206;2022-10-10T14:39:54;18.50;99.90
36352;DHT22;22382;44.768;17.206;2022-10-10T14:42:22;18.40;99.90
36352;DHT22;22382;44.768;17.206;2022-10-10T14:44:49;18.30;99.90
36352;DHT22;22382;44.768;17.206;2022-10-10T14:47:19;18.10;99.90
36352;DHT22;22382;44.768;17.206;2022-10-10T14:49:47;18.10;99.90
36352;DHT22;22382;44.768;17.206;2022-10-10T14:52:14;18.00;99.90
36352;DHT22;22382;44.768;17.206;2022-10-10T14:54:42;18.00;99.90
36352;DHT22;22382;44.768;17.206;2022-10-10T14:57:11;17.80;99.90
36352;DHT22;22382;44.768;17.206;2022-10-10T14:59:38;17.80;99.90
36352;DHT22;22382;44.768;17.206;2022-10-10T15:02:20;17.70;99.90
36352;DHT22;22382;44.768;17.206;2022-10-10T15:04:48;17.70;99.90
36352;DHT22;22382;44.768;17.206;2022-10-10T15:07:15;17.70;99.90
36352;DHT22;22382;44.768;17.206;2022-10-10T15:09:46;17.60;99.90
36352;DHT22;22382;44.768;17.206;2022-10-10T15:12:37;17.70;99.90
36352;DHT22;22382;44.768;17.206;2022-10-10T15:15:11;17.60;99.90
36352;DHT22;22382;44.768;17.206;2022-10-10T15:17:40;17.50;99.90
36352;DHT22;22382;44.768;17.206;2022-10-10T15:20:09;17.50;99.90
36352;DHT22;22382;44.768;17.206;2022-10-10T15:22:37;17.50;99.90
36352;DHT22;22382;44.768;17.206;2022-10-10T15:25:05;17.40;99.90
36352;DHT22;22382;44.768;17.206;2022-10-10T15:27:33;17.30;99.90
36352;DHT22;22382;44.768;17.206;2022-10-10T15:30:00;17.30;99.90
36352;DHT22;22382;44.768;17.206;2022-10-10T15:32:27;17.30;99.90
36352;DHT22;22382;44.768;17.206;2022-10-10T15:34:54;17.30;99.90
36352;DHT22;22382;44.768;17.206;2022-10-10T15:37:24;17.30;99.90
36352;DHT22;22382;44.768;17.206;2022-10-10T15:39:52;17.20;99.90
36352;DHT22;22382;44.768;17.206;2022-10-10T15:42:19;17.10;99.90
36352;DHT22;22382;44.768;17.206;2022-10-10T15:44:49;16.90;99.90
36352;DHT22;22382;44.768;17.206;2022-10-10T15:47:18;16.70;99.90
36352;DHT22;22382;44.768;17.206;2022-10-10T15:49:45;16.60;99.90
36352;DHT22;22382;44.768;17.206;2022-10-10T15:52:12;16.50;99.90
36352;DHT22;22382;44.768;17.206;2022-10-10T15:54:39;16.40;99.90
36352;DHT22;22382;44.768;17.206;2022-10-10T15:57:07;16.40;99.90
36352;DHT22;22382;44.768;17.206;2022-10-10T15:59:33;16.40;99.90
36352;DHT22;22382;44.768;17.206;2022-10-10T16:02:06;16.30;99.90
36352;DHT22;22382;44.768;17.206;2022-10-10T16:04:33;16.30;99.90
36352;DHT22;22382;44.768;17.206;2022-10-10T16:07:00;16.30;99.90
36352;DHT22;22382;44.768;17.206;2022-10-10T16:09:47;16.30;99.90
36352;DHT22;22382;44.768;17.206;2022-10-10T16:12:13;16.30;99.90
36352;DHT22;22382;44.768;17.206;2022-10-10T16:14:40;16.20;99.90
36352;DHT22;22382;44.768;17.206;2022-10-10T16:17:08;16.20;99.90
36352;DHT22;22382;44.768;17.206;2022-10-10T16:19:35;16.20;99.90
36352;DHT22;22382;44.768;17.206;2022-10-10T16:22:02;16.20;99.90
36352;DHT22;22382;44.768;17.206;2022-10-10T16:24:29;16.10;99.90
36352;DHT22;22382;44.768;17.206;2022-10-10T16:26:56;16.10;99.90
36352;DHT22;22382;44.768;17.206;2022-10-10T16:29:25;16.10;99.90
36352;DHT22;22382;44.768;17.206;2022-10-10T16:31:52;16.10;99.90
36352;DHT22;22382;44.768;17.206;2022-10-10T16:34:19;16.10;99.90
36352;DHT22;22382;44.768;17.206;2022-10-10T16:36:46;16.10;99.90
36352;DHT22;22382;44.768;17.206;2022-10-10T16:39:13;16.10;99.90
36352;DHT22;22382;44.768;17.206;2022-10-10T16:41:40;16.10;99.90
36352;DHT22;22382;44.768;17.206;2022-10-10T16:44:15;16.10;99.90
36352;DHT22;22382;44.768;17.206;2022-10-10T16:46:42;16.10;99.90
36352;DHT22;22382;44.768;17.206;2022-10-10T16:49:11;16.10;99.90
36352;DHT22;22382;44.768;17.206;2022-10-10T16:51:38;16.10;99.90
36352;DHT22;22382;44.768;17.206;2022-10-10T16:54:06;16.00;99.90
36352;DHT22;22382;44.768;17.206;2022-10-10T16:56:33;16.10;99.90
36352;DHT22;22382;44.768;17.206;2022-10-10T16:59:01;16.10;99.90
36352;DHT22;22382;44.768;17.206;2022-10-10T17:01:28;16.10;99.90
36352;DHT22;22382;44.768;17.206;2022-10-10T17:03:58;16.10;99.90
36352;DHT22;22382;44.768;17.206;2022-10-10T17:06:25;16.10;99.90
36352;DHT22;22382;44.768;17.206;2022-10-10T17:08:58;16.10;99.90
36352;DHT22;22382;44.768;17.206;2022-10-10T17:11:28;16.10;99.90
36352;DHT22;22382;44.768;17.206;2022-10-10T17:13:55;16.10;99.90
36352;DHT22;22382;44.768;17.206;2022-10-10T17:16:24;16.00;99.90
36352;DHT22;22382;44.768;17.206;2022-10-10T17:19:11;16.00;99.90
36352;DHT22;22382;44.768;17.206;2022-10-10T17:21:38;16.00;99.90
36352;DHT22;22382;44.768;17.206;2022-10-10T17:24:05;15.90;99.90
36352;DHT22;22382;44.768;17.206;2022-10-10T17:26:32;15.90;99.90
36352;DHT22;22382;44.768;17.206;2022-10-10T17:29:00;15.90;99.90
36352;DHT22;22382;44.768;17.206;2022-10-10T17:31:27;15.90;99.90
36352;DHT22;22382;44.768;17.206;2022-10-10T17:33:55;15.90;99.90
36352;DHT22;22382;44.768;17.206;2022-10-10T17:36:24;15.80;99.90